createdAt,value
2022-11-06T00:00:27.246Z,16.90
2022-11-06T00:04:40.994Z,16.75
2022-11-06T00:08:55.303Z,13.63
2022-11-06T00:13:10.531Z,17.90
2022-11-06T00:17:24.229Z,17.20
2022-11-06T00:21:38.320Z,16.43
2022-11-06T00:25:56.481Z,16.50
2022-11-06T00:30:12.757Z,17.08
2022-11-06T00:34:26.430Z,17.65
2022-11-06T00:38:40.418Z,10.73
2022-11-06T00:49:59.541Z,15.60
2022-11-06T00:54:53.901Z,15.83
2022-11-06T00:59:48.308Z,18.88
2022-11-06T01:04:42.755Z,16.10
2022-11-06T01:09:38.898Z,20.40
2022-11-06T01:14:33.152Z,19.15
2022-11-06T01:19:02.888Z,14.98
2022-11-06T01:23:35.282Z,16.92
2022-11-06T01:27:50.541Z,17.37
2022-11-06T01:32:04.918Z,16.48
2022-11-06T01:36:20.602Z,14.13
2022-11-06T01:40:41.324Z,14.00
2022-11-06T01:45:23.235Z,15.50
2022-11-06T01:49:39.466Z,20.92
2022-11-06T01:54:00.920Z,16.97
2022-11-06T01:58:21.086Z,17.15
2022-11-06T02:02:36.941Z,16.50
2022-11-06T02:06:51.272Z,17.23
2022-11-06T02:11:05.092Z,15.07
2022-11-06T02:15:31.865Z,20.55
2022-11-06T02:20:05.425Z,18.75
2022-11-06T02:24:43.357Z,15.97
2022-11-06T02:29:03.820Z,17.25
2022-11-06T02:33:22.586Z,17.02
2022-11-06T02:37:38.591Z,17.60
2022-11-06T02:41:54.493Z,16.02
2022-11-06T02:46:14.408Z,17.38
2022-11-06T02:50:32.957Z,17.75
2022-11-06T02:54:51.558Z,15.70
2022-11-06T02:59:10.315Z,16.33
2022-11-06T03:03:29.330Z,19.67
2022-11-06T03:07:48.437Z,18.73
2022-11-06T03:12:11.421Z,13.80
2022-11-06T03:16:34.701Z,18.35
2022-11-06T03:20:58.392Z,18.00
2022-11-06T03:25:19.690Z,18.55
2022-11-06T03:29:41.546Z,16.95
2022-11-06T03:33:59.609Z,20.33
2022-11-06T03:38:20.295Z,19.97
2022-11-06T03:42:34.293Z,18.75
2022-11-06T03:46:51.285Z,20.75
2022-11-06T03:51:09.399Z,20.00
2022-11-06T03:55:31.087Z,19.17
2022-11-06T03:59:51.447Z,17.55
2022-11-06T04:04:10.456Z,17.97
2022-11-06T04:08:45.344Z,20.35
2022-11-06T04:13:18.684Z,19.10
2022-11-06T04:17:33.397Z,18.63
2022-11-06T04:22:03.088Z,18.50
2022-11-06T04:26:39.311Z,23.42
2022-11-06T04:31:06.825Z,19.38
2022-11-06T04:35:30.145Z,21.77
2022-11-06T04:39:53.108Z,21.20
2022-11-06T04:44:11.343Z,22.65
2022-11-06T04:48:27.389Z,22.63
2022-11-06T04:52:42.070Z,20.75
2022-11-06T04:57:00.506Z,24.10
2022-11-06T05:01:14.364Z,23.73
2022-11-06T05:05:29.534Z,22.20
2022-11-06T05:09:43.586Z,22.58
2022-11-06T05:13:57.393Z,21.38
2022-11-06T05:18:11.694Z,21.87
2022-11-06T05:22:44.481Z,23.42
2022-11-06T05:26:59.780Z,22.02
2022-11-06T05:31:13.860Z,22.43
2022-11-06T05:35:27.618Z,20.63
2022-11-06T05:39:42.755Z,15.50
2022-11-06T05:43:56.497Z,21.30
2022-11-06T05:48:10.432Z,20.97
2022-11-06T05:52:24.483Z,22.45
2022-11-06T05:56:39.841Z,14.52
2022-11-06T06:00:54.959Z,14.60
2022-11-06T06:05:09.876Z,15.48
2022-11-06T06:09:23.666Z,17.48
2022-11-06T06:13:38.801Z,17.67
2022-11-06T06:17:52.563Z,18.50
2022-11-06T06:22:06.282Z,15.98
2022-11-06T06:26:20.018Z,14.75
2022-11-06T06:30:35.965Z,17.17
2022-11-06T06:34:49.711Z,14.75
2022-11-06T06:39:03.454Z,18.25
2022-11-06T06:43:17.175Z,16.17
2022-11-06T06:47:32.233Z,13.45
2022-11-06T06:51:45.995Z,14.57
2022-11-06T06:56:00.693Z,16.37
2022-11-06T07:00:14.896Z,15.13
2022-11-06T07:04:30.043Z,16.80
2022-11-06T07:08:44.053Z,12.80
2022-11-06T07:13:01.189Z,15.20
2022-11-06T07:17:14.962Z,10.43
2022-11-06T07:21:30.099Z,13.80
2022-11-06T07:25:44.000Z,14.97
2022-11-06T07:29:57.663Z,15.65
2022-11-06T07:34:11.452Z,15.75
2022-11-06T07:38:26.528Z,18.43
2022-11-06T07:42:43.514Z,16.30
2022-11-06T07:47:01.871Z,13.38
2022-11-06T07:51:15.531Z,11.50
2022-11-06T07:55:30.691Z,14.17
2022-11-06T07:59:44.517Z,10.68
2022-11-06T08:03:58.354Z,12.45
2022-11-06T08:08:12.722Z,11.93
2022-11-06T08:12:27.886Z,12.75
2022-11-06T08:16:41.710Z,11.85
2022-11-06T08:20:56.696Z,11.53
2022-11-06T08:25:20.043Z,8.95
2022-11-06T08:29:40.897Z,10.77
2022-11-06T08:33:55.256Z,10.57
2022-11-06T08:38:09.050Z,12.37
2022-11-06T08:42:22.785Z,9.93
2022-11-06T08:46:37.864Z,9.63
2022-11-06T08:50:51.749Z,11.53
2022-11-06T08:55:06.213Z,11.35
2022-11-06T08:59:19.955Z,10.70
2022-11-06T09:03:35.177Z,11.63
2022-11-06T09:07:48.870Z,10.65
2022-11-06T09:12:03.673Z,10.30
2022-11-06T09:16:17.515Z,9.32
2022-11-06T09:20:32.656Z,11.07
2022-11-06T09:25:04.075Z,11.93
2022-11-06T09:29:18.472Z,9.45
2022-11-06T09:33:32.135Z,11.00
2022-11-06T09:37:47.519Z,10.20
2022-11-06T09:42:05.112Z,10.82
2022-11-06T09:46:23.821Z,9.77
2022-11-06T09:50:41.641Z,9.18
2022-11-06T09:55:01.480Z,11.10
2022-11-06T09:59:18.902Z,7.75
2022-11-06T10:03:41.606Z,8.60
2022-11-06T10:07:58.032Z,6.72
2022-11-06T10:12:20.622Z,8.10
2022-11-06T10:16:41.806Z,9.27
2022-11-06T10:21:02.206Z,7.10
2022-11-06T10:25:22.088Z,7.43
2022-11-06T10:29:59.321Z,9.10
2022-11-06T10:34:16.997Z,8.48
2022-11-06T10:38:34.804Z,7.90
2022-11-06T10:42:54.772Z,7.38
2022-11-06T10:47:15.319Z,7.43
2022-11-06T10:51:40.268Z,8.70
2022-11-06T10:56:11.023Z,6.78
2022-11-06T11:00:25.504Z,7.33
2022-11-06T11:04:41.150Z,8.02
2022-11-06T11:08:54.870Z,7.32
2022-11-06T11:13:21.855Z,7.40
2022-11-06T11:17:35.600Z,7.63
2022-11-06T11:21:56.656Z,8.73
2022-11-06T11:26:22.831Z,7.47
2022-11-06T11:30:36.565Z,6.27
2022-11-06T11:34:56.633Z,7.90
2022-11-06T11:39:12.749Z,7.70
2022-11-06T11:43:28.780Z,7.10
2022-11-06T11:47:45.956Z,6.43
2022-11-06T11:52:01.818Z,7.13
2022-11-06T11:56:42.444Z,7.77
2022-11-06T12:22:20.035Z,7.47
2022-11-06T12:26:38.047Z,7.22
2022-11-06T12:31:05.492Z,6.90
2022-11-06T12:35:26.149Z,7.78
2022-11-06T12:39:41.720Z,7.10
2022-11-06T12:43:57.006Z,7.77
2022-11-06T12:48:29.515Z,7.07
2022-11-06T12:53:06.331Z,7.70
2022-11-06T12:57:28.818Z,6.13
2022-11-06T13:01:52.913Z,6.43
2022-11-06T13:06:14.386Z,6.30
2022-11-06T13:10:37.948Z,6.82
2022-11-06T13:15:04.476Z,7.87
2022-11-06T13:19:25.761Z,6.20
2022-11-06T13:23:49.225Z,6.75
2022-11-06T13:28:24.018Z,6.30
2022-11-06T13:32:40.411Z,8.18
2022-11-06T13:36:55.801Z,7.43
2022-11-06T13:41:16.156Z,7.90
2022-11-06T13:45:36.231Z,8.55
2022-11-06T13:49:59.961Z,7.53
2022-11-06T13:54:36.433Z,6.50
2022-11-06T13:59:08.245Z,10.20
2022-11-06T14:03:56.831Z,8.80
2022-11-06T14:08:17.264Z,9.32
2022-11-06T14:12:31.211Z,7.00
2022-11-06T14:16:48.163Z,7.78
2022-11-06T14:21:42.975Z,7.72
2022-11-06T14:26:00.962Z,6.77
2022-11-06T14:31:10.354Z,8.02
2022-11-06T14:35:53.316Z,8.93
2022-11-06T14:40:13.133Z,7.57
2022-11-06T14:44:35.677Z,8.13
2022-11-06T14:48:53.229Z,8.95
2022-11-06T14:53:21.340Z,7.55
2022-11-06T14:57:42.987Z,9.73
2022-11-06T15:02:03.590Z,8.13
2022-11-06T15:06:41.758Z,8.18
2022-11-06T15:10:56.915Z,10.03
2022-11-06T15:15:18.249Z,9.70
2022-11-06T15:19:39.536Z,8.07
2022-11-06T15:24:04.684Z,8.18
2022-11-06T15:28:24.660Z,8.20
2022-11-06T15:32:42.067Z,10.45
2022-11-06T15:37:04.687Z,7.80
2022-11-06T15:41:22.466Z,10.33
2022-11-06T15:45:37.994Z,12.18
2022-11-06T15:50:12.104Z,10.70
2022-11-06T15:54:36.029Z,9.43
2022-11-06T15:59:07.571Z,11.52
2022-11-06T16:03:24.579Z,9.15
2022-11-06T16:07:38.932Z,10.70
2022-11-06T16:11:54.014Z,11.27
2022-11-06T16:16:28.127Z,10.35
2022-11-06T16:20:44.649Z,10.55
2022-11-06T16:25:01.687Z,9.83
2022-11-06T16:29:20.281Z,12.05
2022-11-06T16:33:34.301Z,12.38
2022-11-06T16:37:50.207Z,10.87
2022-11-06T16:42:19.719Z,9.98
2022-11-06T16:47:13.253Z,11.40
2022-11-06T16:51:32.736Z,12.00
2022-11-06T16:55:54.520Z,12.93
2022-11-06T17:00:23.475Z,11.05
2022-11-06T17:04:37.445Z,8.63
2022-11-06T17:09:24.994Z,11.13
2022-11-06T17:13:43.088Z,9.93
2022-11-06T17:17:57.016Z,10.38
2022-11-06T17:22:11.745Z,12.33
2022-11-06T17:26:28.969Z,12.75
2022-11-06T17:30:44.420Z,10.38
2022-11-06T17:34:58.594Z,10.63
2022-11-06T17:39:12.417Z,12.23
2022-11-06T17:43:26.194Z,12.70
2022-11-06T17:47:41.613Z,12.48
2022-11-06T17:51:59.880Z,14.40
2022-11-06T17:56:14.413Z,14.05
2022-11-06T18:00:28.475Z,15.30
2022-11-06T18:04:44.481Z,14.97
2022-11-06T18:08:58.630Z,12.98
2022-11-06T18:13:12.625Z,9.30
2022-11-06T18:17:26.729Z,11.55
2022-11-06T18:21:42.468Z,13.03
2022-11-06T18:25:58.249Z,13.15
2022-11-06T18:30:13.371Z,17.30
2022-11-06T18:34:27.091Z,14.73
2022-11-06T18:38:43.147Z,15.48
2022-11-06T18:42:57.224Z,12.90
2022-11-06T18:47:10.996Z,13.40
2022-11-06T18:51:35.015Z,13.45
2022-11-06T18:55:50.490Z,14.30
2022-11-06T19:00:05.327Z,12.23
2022-11-06T19:04:19.237Z,11.73
2022-11-06T19:08:32.937Z,14.82
2022-11-06T19:12:48.007Z,14.02
2022-11-06T19:17:01.807Z,16.20
2022-11-06T19:21:15.706Z,13.38
2022-11-06T19:25:29.548Z,10.60
2022-11-06T19:29:44.659Z,16.23
2022-11-06T19:33:59.130Z,12.63
2022-11-06T19:38:12.900Z,13.57
2022-11-06T19:42:26.617Z,15.18
2022-11-06T19:46:41.798Z,14.77
2022-11-06T19:51:00.056Z,14.18
2022-11-06T19:55:26.032Z,13.52
2022-11-06T19:59:41.220Z,13.77
2022-11-06T20:03:56.583Z,17.15
2022-11-06T20:08:10.898Z,14.35
2022-11-06T20:12:24.620Z,14.77
2022-11-06T20:16:38.404Z,15.60
2022-11-06T20:20:53.498Z,14.10
2022-11-06T20:25:08.073Z,17.40
2022-11-06T20:29:22.046Z,16.77
2022-11-06T20:33:36.360Z,12.43
2022-11-06T20:37:51.438Z,15.05
2022-11-06T20:42:05.463Z,13.50
2022-11-06T20:46:20.232Z,13.18
2022-11-06T20:50:34.593Z,15.98
2022-11-06T20:54:49.784Z,14.33
2022-11-06T20:59:03.498Z,11.07
2022-11-06T21:03:17.456Z,12.00
2022-11-06T21:07:31.418Z,13.50
2022-11-06T21:11:46.559Z,10.67
2022-11-06T21:16:01.843Z,10.68
2022-11-06T21:20:20.382Z,13.13
2022-11-06T21:24:36.599Z,11.70
2022-11-06T21:28:52.310Z,11.35
2022-11-06T21:33:06.047Z,12.75
2022-11-06T21:37:20.170Z,11.83
2022-11-06T21:41:34.656Z,12.50
2022-11-06T21:45:49.692Z,12.43
2022-11-06T21:50:03.449Z,12.27
2022-11-06T21:54:34.564Z,15.27
2022-11-06T21:58:54.779Z,13.05
2022-11-06T22:03:09.819Z,11.35
2022-11-06T22:07:23.521Z,10.83
2022-11-06T22:11:39.312Z,12.60
2022-11-06T22:15:56.110Z,14.25
2022-11-06T22:20:12.602Z,15.53
2022-11-06T22:24:26.406Z,14.02
2022-11-06T22:28:40.564Z,14.95
2022-11-06T22:32:54.345Z,12.60
2022-11-06T22:37:09.449Z,15.60
2022-11-06T22:41:24.954Z,12.77
2022-11-06T22:45:42.060Z,13.63
2022-11-06T22:49:56.484Z,10.90
2022-11-06T22:54:11.625Z,12.82
2022-11-06T22:58:25.709Z,11.98
2022-11-06T23:02:42.255Z,13.17
2022-11-06T23:06:56.056Z,11.65
2022-11-06T23:11:13.670Z,13.35
2022-11-06T23:15:27.356Z,13.10
2022-11-06T23:19:41.044Z,11.50
2022-11-06T23:23:54.727Z,14.07
2022-11-06T23:28:09.912Z,9.98
2022-11-06T23:32:23.797Z,12.43
2022-11-06T23:36:37.577Z,14.77
2022-11-06T23:40:51.256Z,12.18
2022-11-06T23:45:24.783Z,12.40
2022-11-06T23:49:38.540Z,12.23
2022-11-06T23:53:52.605Z,11.13
2022-11-06T23:58:08.268Z,13.65
